Time;durP1;ratioP1;P1;durP2;ratioP2;P2;SDS_P1;SDS_P2;PMS_P1;PMS_P2;Temp;Humidity;BMP_temperature;BMP_pressure;BME280_temperature;BME280_humidity;BME280_pressure;Samples;Min_cycle;Max_cycle;Signal;HPM_P1;HPM_P2
2023/07/19 00:02:10;;;;;;;1999.90;999.90;;;17.40;99.90;;;;;;5051520;28;20433;-71
2023/07/19 00:04:37;;;;;;;1999.90;999.90;;;17.30;99.90;;;;;;5050921;28;20487;-69
2023/07/19 00:07:04;;;;;;;1999.90;999.90;;;16.90;99.90;;;;;;5052260;28;20460;-69
2023/07/19 00:09:31;;;;;;;1999.90;999.90;;;16.90;99.90;;;;;;5052183;28;20814;-70
2023/07/19 00:11:59;;;;;;;1999.90;999.90;;;16.90;99.90;;;;;;5051885;28;20479;-70
2023/07/19 00:14:26;;;;;;;1999.90;999.90;;;16.80;99.90;;;;;;5050418;28;20424;-70
2023/07/19 00:16:52;;;;;;;1999.90;999.90;;;16.80;99.90;;;;;;5050314;28;20436;-70
2023/07/19 00:19:19;;;;;;;1999.90;999.90;;;16.90;99.90;;;;;;5051160;28;20433;-69
2023/07/19 00:21:46;;;;;;;1999.90;999.90;;;16.90;99.90;;;;;;5051348;28;20433;-70
2023/07/19 00:24:13;;;;;;;1999.90;999.90;;;16.80;99.90;;;;;;5050968;28;20432;-70
2023/07/19 00:26:39;;;;;;;1999.90;999.90;;;16.90;99.90;;;;;;5051506;28;20437;-67
2023/07/19 00:29:07;;;;;;;1999.90;999.90;;;17.00;99.90;;;;;;5051101;28;20803;-73
2023/07/19 00:31:34;;;;;;;1999.90;999.90;;;17.10;99.90;;;;;;5050586;28;20429;-73
2023/07/19 00:34:01;;;;;;;1999.90;999.90;;;17.20;99.90;;;;;;5048543;28;20440;-72
2023/07/19 00:36:28;;;;;;;1999.90;999.90;;;17.30;99.90;;;;;;5051785;28;20425;-73
2023/07/19 00:38:54;;;;;;;1999.90;999.90;;;17.20;99.90;;;;;;5051598;28;20441;-72
2023/07/19 00:41:21;;;;;;;1999.90;999.90;;;17.10;99.90;;;;;;5050791;28;20433;-69
2023/07/19 00:43:48;;;;;;;1999.90;999.90;;;16.70;99.90;;;;;;5050803;28;20436;-70
2023/07/19 00:46:16;;;;;;;1999.90;999.90;;;16.60;99.90;;;;;;5047261;28;20463;-70
2023/07/19 00:48:43;;;;;;;1999.90;999.90;;;16.40;99.90;;;;;;5051084;28;20830;-69
2023/07/19 00:51:10;;;;;;;1999.90;999.90;;;16.40;99.90;;;;;;5049839;28;20442;-70
2023/07/19 00:53:38;;;;;;;1999.90;999.90;;;16.40;99.90;;;;;;5051154;28;20430;-69
2023/07/19 00:56:07;;;;;;;1999.90;999.90;;;16.30;99.90;;;;;;5050562;28;20799;-69
2023/07/19 00:58:34;;;;;;;1999.90;999.90;;;16.30;99.90;;;;;;5048980;28;20487;-70
2023/07/19 01:01:02;;;;;;;1999.90;999.90;;;16.30;99.90;;;;;;5050408;28;20517;-70
2023/07/19 01:03:30;;;;;;;1999.90;999.90;;;16.30;99.90;;;;;;5051488;28;20524;-69
2023/07/19 01:06:00;;;;;;;1999.90;999.90;;;16.30;99.90;;;;;;5051371;28;20429;-70
2023/07/19 01:08:27;;;;;;;1999.90;999.90;;;16.40;99.90;;;;;;5049871;28;20426;-71
2023/07/19 01:10:54;;;;;;;1999.90;999.90;;;16.40;99.90;;;;;;5051011;28;20448;-69
2023/07/19 01:13:21;;;;;;;1999.90;999.90;;;16.30;99.90;;;;;;5051001;28;20934;-70
2023/07/19 01:15:48;;;;;;;1999.90;999.90;;;16.40;99.90;;;;;;5050947;28;20429;-69
2023/07/19 01:18:15;;;;;;;1999.90;999.90;;;16.60;99.90;;;;;;5049125;28;20433;-69
2023/07/19 01:20:43;;;;;;;1999.90;999.90;;;16.80;99.90;;;;;;5051170;28;20437;-70
2023/07/19 01:23:12;;;;;;;1999.90;999.90;;;16.60;99.90;;;;;;5050797;28;20426;-69
2023/07/19 01:25:39;;;;;;;1999.90;999.90;;;16.60;99.90;;;;;;5050139;28;20441;-67
2023/07/19 01:28:06;;;;;;;1999.90;999.90;;;16.60;99.90;;;;;;5050001;28;20459;-70
2023/07/19 01:30:33;;;;;;;1999.90;999.90;;;16.30;99.90;;;;;;5050890;28;20429;-70
2023/07/19 01:33:00;;;;;;;1999.90;999.90;;;16.20;99.90;;;;;;5049345;28;20433;-70
2023/07/19 01:35:26;;;;;;;1999.90;999.90;;;16.20;99.90;;;;;;5049364;28;20433;-69
2023/07/19 01:37:53;;;;;;;1999.90;999.90;;;16.10;99.90;;;;;;5043862;28;20435;-70
2023/07/19 01:40:21;;;;;;;1999.90;999.90;;;16.00;99.90;;;;;;5050581;28;21023;-70
2023/07/19 01:42:48;;;;;;;1999.90;999.90;;;16.00;99.90;;;;;;5050331;28;20437;-70
2023/07/19 01:45:15;;;;;;;1999.90;999.90;;;16.00;99.90;;;;;;5049189;28;20464;-69
2023/07/19 01:47:42;;;;;;;1999.90;999.90;;;15.90;99.90;;;;;;5050154;28;20512;-70
2023/07/19 01:50:09;;;;;;;1999.90;999.90;;;15.90;99.90;;;;;;5050288;28;20429;-69
2023/07/19 01:52:36;;;;;;;1999.90;999.90;;;15.90;99.90;;;;;;5049502;28;20441;-70
2023/07/19 01:55:02;;;;;;;1999.90;999.90;;;16.10;99.90;;;;;;5049603;28;20429;-69
2023/07/19 01:57:31;;;;;;;1999.90;999.90;;;16.20;99.90;;;;;;5049892;28;20461;-69
2023/07/19 01:59:57;;;;;;;1999.90;999.90;;;16.20;99.90;;;;;;5050012;28;20903;-70
2023/07/19 02:02:24;;;;;;;1999.90;999.90;;;16.40;99.90;;;;;;5048434;28;20437;-69
2023/07/19 02:04:51;;;;;;;1999.90;999.90;;;16.40;99.90;;;;;;5048128;28;20437;-70
2023/07/19 02:07:18;;;;;;;1999.90;999.90;;;16.30;99.90;;;;;;5049836;28;20437;-71
2023/07/19 02:09:44;;;;;;;1999.90;999.90;;;16.30;99.90;;;;;;5049895;28;20429;-70
2023/07/19 02:12:11;;;;;;;1999.90;999.90;;;16.10;99.90;;;;;;5048627;28;20425;-69
2023/07/19 02:14:39;;;;;;;1999.90;999.90;;;16.10;99.90;;;;;;5049045;28;20425;-69
2023/07/19 02:17:06;;;;;;;1999.90;999.90;;;16.00;99.90;;;;;;5049792;28;20436;-69
2023/07/19 02:19:33;;;;;;;1999.90;999.90;;;15.90;99.90;;;;;;5049724;28;20433;-69
2023/07/19 02:22:00;;;;;;;1999.90;999.90;;;15.70;99.90;;;;;;5048413;28;20870;-70
2023/07/19 02:24:27;;;;;;;1999.90;999.90;;;15.60;99.90;;;;;;5047920;28;20894;-70
2023/07/19 02:26:53;;;;;;;1999.90;999.90;;;15.60;99.90;;;;;;5049564;28;20437;-70
2023/07/19 02:29:20;;;;;;;1999.90;999.90;;;15.50;99.90;;;;;;5048751;28;20919;-70
2023/07/19 02:31:48;;;;;;;1999.90;999.90;;;15.50;99.90;;;;;;5048334;28;20437;-69
2023/07/19 02:34:18;;;;;;;1999.90;999.90;;;15.40;99.90;;;;;;5048686;28;20525;-70
2023/07/19 02:36:45;;;;;;;1999.90;999.90;;;15.40;99.90;;;;;;5048287;28;20435;-69
2023/07/19 02:39:12;;;;;;;1999.90;999.90;;;15.40;99.90;;;;;;5048823;28;20437;-70
2023/07/19 02:41:38;;;;;;;1999.90;999.90;;;15.50;99.90;;;;;;5047640;28;20433;-69
2023/07/19 02:44:05;;;;;;;1999.90;999.90;;;15.50;99.90;;;;;;5049150;28;20441;-70
2023/07/19 02:46:32;;;;;;;1999.90;999.90;;;15.60;99.90;;;;;;5048800;28;20436;-69
2023/07/19 02:49:00;;;;;;;1999.90;999.90;;;15.50;99.90;;;;;;5048811;28;20544;-70
2023/07/19 02:51:27;;;;;;;1999.90;999.90;;;15.50;99.90;;;;;;5047787;28;20432;-68
2023/07/19 02:53:53;;;;;;;1999.90;999.90;;;15.50;99.90;;;;;;5048622;28;20426;-69
2023/07/19 02:56:20;;;;;;;1999.90;999.90;;;15.50;99.90;;;;;;5041941;28;20433;-70
2023/07/19 02:58:47;;;;;;;1999.90;999.90;;;15.50;99.90;;;;;;5048218;28;20853;-69
2023/07/19 03:01:14;;;;;;;1999.90;999.90;;;15.50;99.90;;;;;;5048727;28;20922;-70
2023/07/19 03:03:42;;;;;;;1999.90;999.90;;;15.50;99.90;;;;;;5046250;28;20456;-70
2023/07/19 03:06:10;;;;;;;1999.90;999.90;;;15.50;99.90;;;;;;5048581;28;20498;-67
2023/07/19 03:08:37;;;;;;;1999.90;999.90;;;15.50;99.90;;;;;;5048384;28;20436;-70
2023/07/19 03:11:06;;;;;;;1999.90;999.90;;;15.60;99.90;;;;;;5048570;28;20508;-69
2023/07/19 03:13:33;;;;;;;1999.90;999.90;;;15.70;99.90;;;;;;5043765;28;20433;-69
2023/07/19 03:15:59;;;;;;;1999.90;999.90;;;15.70;99.90;;;;;;5048581;28;20448;-69
2023/07/19 03:18:26;;;;;;;1999.90;999.90;;;15.80;99.90;;;;;;5047528;28;20428;-67
2023/07/19 03:20:58;;;;;;;1999.90;999.90;;;15.80;99.90;;;;;;5048693;28;20433;-70
2023/07/19 03:23:26;;;;;;;1999.90;999.90;;;15.70;99.90;;;;;;5045103;28;20433;-68
2023/07/19 03:25:56;;;;;;;1999.90;999.90;;;15.60;99.90;;;;;;5043146;28;20472;-68
2023/07/19 03:28:23;;;;;;;1999.90;999.90;;;15.70;99.90;;;;;;5042872;28;20794;-69
2023/07/19 03:30:54;;;;;;;1999.90;999.90;;;15.80;99.90;;;;;;5048413;28;20433;-67
2023/07/19 03:33:21;;;;;;;1999.90;999.90;;;15.80;99.90;;;;;;5046901;28;20429;-69
2023/07/19 03:35:48;;;;;;;1999.90;999.90;;;15.80;99.90;;;;;;5046043;28;20819;-69
2023/07/19 03:38:14;;;;;;;1999.90;999.90;;;15.90;99.90;;;;;;5046126;28;20444;-68
2023/07/19 03:40:42;;;;;;;1999.90;999.90;;;15.80;99.90;;;;;;5044898;28;20440;-70
2023/07/19 03:43:09;;;;;;;1999.90;999.90;;;15.80;99.90;;;;;;5048252;28;20436;-69
2023/07/19 03:45:36;;;;;;;1999.90;999.90;;;15.90;99.90;;;;;;5047132;28;20433;-69
2023/07/19 03:48:03;;;;;;;1999.90;999.90;;;15.90;99.90;;;;;;5048185;28;20491;-69
2023/07/19 03:50:30;;;;;;;1999.90;999.90;;;16.00;99.90;;;;;;5047784;28;20433;-69
2023/07/19 03:52:56;;;;;;;1999.90;999.90;;;15.90;99.90;;;;;;5047428;28;20429;-70
2023/07/19 03:55:23;;;;;;;1999.90;999.90;;;16.00;99.90;;;;;;5040889;28;20822;-70
2023/07/19 03:57:51;;;;;;;1999.90;999.90;;;16.00;99.90;;;;;;5048050;28;20440;-70
2023/07/19 04:00:18;;;;;;;1999.90;999.90;;;16.10;99.90;;;;;;5047384;28;20448;-69
2023/07/19 04:02:45;;;;;;;1999.90;999.90;;;16.00;99.90;;;;;;5047664;28;20441;-68
2023/07/19 04:05:12;;;;;;;1999.90;999.90;;;16.10;99.90;;;;;;5048275;28;20536;-69
2023/07/19 04:07:39;;;;;;;1999.90;999.90;;;16.30;99.90;;;;;;5047230;28;20440;-69
2023/07/19 04:10:06;;;;;;;1999.90;999.90;;;16.40;99.90;;;;;;5047359;28;20440;-70
2023/07/19 04:12:33;;;;;;;1999.90;999.90;;;16.50;99.90;;;;;;5048154;28;20799;-70
2023/07/19 04:15:01;;;;;;;1999.90;999.90;;;16.60;99.90;;;;;;5047401;28;20429;-70
2023/07/19 04:17:28;;;;;;;1999.90;999.90;;;16.70;99.90;;;;;;5048087;28;20486;-69
2023/07/19 04:19:55;;;;;;;1999.90;999.90;;;16.80;99.90;;;;;;5047221;28;20919;-69
2023/07/19 04:22:22;;;;;;;1999.90;999.90;;;16.70;99.90;;;;;;5048042;28;20480;-68
2023/07/19 04:24:48;;;;;;;1999.90;999.90;;;16.80;99.90;;;;;;5047239;28;20799;-68
2023/07/19 04:27:15;;;;;;;1999.90;999.90;;;16.80;99.90;;;;;;5047100;28;20457;-70
2023/07/19 04:29:42;;;;;;;1999.90;999.90;;;16.70;99.90;;;;;;5046845;28;20445;-70
2023/07/19 04:32:10;;;;;;;1999.90;999.90;;;16.40;99.90;;;;;;5047691;28;20911;-68
2023/07/19 04:34:37;;;;;;;1999.90;999.90;;;16.40;99.90;;;;;;5046728;28;20430;-68
2023/07/19 04:37:04;;;;;;;1999.90;999.90;;;16.50;99.90;;;;;;5046106;28;20429;-69
2023/07/19 04:39:31;;;;;;;1999.90;999.90;;;16.60;99.90;;;;;;5051355;28;20894;-69
2023/07/19 04:41:58;;;;;;;1999.90;999.90;;;16.70;99.90;;;;;;5051430;28;20445;-69
2023/07/19 04:44:24;;;;;;;1999.90;999.90;;;16.90;99.90;;;;;;5051274;28;20428;-70
2023/07/19 04:46:51;;;;;;;1999.90;999.90;;;16.90;99.90;;;;;;5049712;28;20523;-69
2023/07/19 04:49:19;;;;;;;1999.90;999.90;;;17.00;99.90;;;;;;5050429;28;20425;-69
2023/07/19 04:51:46;;;;;;;1999.90;999.90;;;17.10;99.90;;;;;;5051217;28;20802;-70
2023/07/19 04:54:13;;;;;;;1999.90;999.90;;;17.30;99.90;;;;;;5051379;28;20429;-72
2023/07/19 04:56:39;;;;;;;1999.90;999.90;;;17.50;99.90;;;;;;5047427;28;20862;-72
2023/07/19 04:59:06;;;;;;;1999.90;999.90;;;17.40;99.90;;;;;;5051052;28;20437;-72
2023/07/19 05:01:33;;;;;;;1999.90;999.90;;;17.70;99.90;;;;;;5051456;28;20433;-72
2023/07/19 05:03:59;;;;;;;1999.90;999.90;;;17.70;99.90;;;;;;5051047;28;20436;-69
2023/07/19 05:06:29;;;;;;;1999.90;999.90;;;17.90;99.90;;;;;;5047937;28;20429;-71
2023/07/19 05:08:55;;;;;;;1999.90;999.90;;;18.00;99.90;;;;;;5050655;28;20479;-71
2023/07/19 05:11:25;;;;;;;1999.90;999.90;;;18.20;99.90;;;;;;5050885;28;20463;-73
2023/07/19 05:13:51;;;;;;;1999.90;999.90;;;18.00;99.90;;;;;;5050869;28;20943;-72
2023/07/19 05:16:18;;;;;;;1999.90;999.90;;;18.30;99.90;;;;;;5049782;28;20440;-71
2023/07/19 05:18:46;;;;;;;1999.90;999.90;;;18.30;99.90;;;;;;5050052;28;20433;-72
2023/07/19 05:21:13;;;;;;;1999.90;999.90;;;18.50;99.90;;;;;;5049076;28;20870;-72
2023/07/19 05:23:42;;;;;;;1999.90;999.90;;;18.80;99.90;;;;;;5046316;28;20440;-72
2023/07/19 05:26:09;;;;;;;1999.90;999.90;;;18.70;99.90;;;;;;5049061;28;20457;-71
2023/07/19 05:28:36;;;;;;;1999.90;999.90;;;18.80;99.90;;;;;;5047728;28;20938;-72
2023/07/19 05:31:03;;;;;;;1999.90;999.90;;;18.90;99.90;;;;;;5048217;28;20519;-72
2023/07/19 05:33:30;;;;;;;1999.90;999.90;;;19.10;99.90;;;;;;5049989;28;20510;-72
2023/07/19 05:35:56;;;;;;;1999.90;999.90;;;19.40;99.90;;;;;;5048304;28;20433;-72
2023/07/19 05:38:23;;;;;;;1999.90;999.90;;;19.30;99.90;;;;;;5049698;28;20440;-71
2023/07/19 05:40:51;;;;;;;1999.90;999.90;;;19.40;99.90;;;;;;5049793;28;20449;-72
2023/07/19 05:43:18;;;;;;;1999.90;999.90;;;19.50;99.90;;;;;;5050524;28;20429;-72
2023/07/19 05:45:45;;;;;;;1999.90;999.90;;;19.80;99.90;;;;;;5050539;28;20850;-73
2023/07/19 05:48:12;;;;;;;1999.90;999.90;;;19.90;99.90;;;;;;5048554;28;20803;-72
2023/07/19 05:50:38;;;;;;;1999.90;999.90;;;20.40;99.90;;;;;;5049234;28;20425;-71
2023/07/19 05:53:05;;;;;;;1999.90;999.90;;;20.70;99.90;;;;;;5049180;28;20440;-70
2023/07/19 05:55:32;;;;;;;1999.90;999.90;;;21.10;99.90;;;;;;5050180;28;20946;-70
2023/07/19 05:58:00;;;;;;;1999.90;999.90;;;21.30;99.90;;;;;;5049680;28;20437;-68
2023/07/19 06:00:28;;;;;;;1999.90;999.90;;;21.50;99.90;;;;;;5049333;28;20440;-71
2023/07/19 06:02:55;;;;;;;1999.90;999.90;;;20.70;99.90;;;;;;5049159;28;20497;-73
2023/07/19 06:05:24;;;;;;;1999.90;999.90;;;20.70;99.90;;;;;;5049763;28;20441;-73
2023/07/19 06:07:51;;;;;;;1999.90;999.90;;;20.80;99.90;;;;;;5048917;28;20922;-70
2023/07/19 06:10:18;;;;;;;1999.90;999.90;;;21.10;99.90;;;;;;5049267;28;20440;-69
2023/07/19 06:12:46;;;;;;;1999.90;999.90;;;21.40;99.90;;;;;;5045299;28;20437;-70
2023/07/19 06:15:15;;;;;;;1999.90;999.90;;;21.80;99.90;;;;;;5049719;28;20433;-67
2023/07/19 06:17:42;;;;;;;1999.90;999.90;;;22.20;99.90;;;;;;5049402;28;20494;-70
2023/07/19 06:20:11;;;;;;;1999.90;999.90;;;22.40;99.90;;;;;;5049039;28;20444;-68
2023/07/19 06:22:37;;;;;;;1999.90;999.90;;;22.80;99.90;;;;;;5049728;28;20446;-70
2023/07/19 06:25:05;;;;;;;1999.90;999.90;;;23.00;99.90;;;;;;5045756;28;20493;-70
2023/07/19 06:27:31;;;;;;;1999.90;999.90;;;22.80;99.90;;;;;;5045467;28;20429;-70
2023/07/19 06:29:59;;;;;;;1999.90;999.90;;;22.80;99.90;;;;;;5047394;28;20429;-72
2023/07/19 06:32:28;;;;;;;1999.90;999.90;;;23.10;99.90;;;;;;5049088;28;20448;-72
2023/07/19 06:34:54;;;;;;;1999.90;999.90;;;23.20;99.90;;;;;;5048744;28;20452;-72
2023/07/19 06:37:21;;;;;;;1999.90;999.90;;;23.50;99.90;;;;;;5049321;28;20433;-72
2023/07/19 06:39:48;;;;;;;1999.90;999.90;;;23.40;99.90;;;;;;5049217;28;20437;-72
2023/07/19 06:42:15;;;;;;;1999.90;999.90;;;23.80;99.90;;;;;;5048273;28;20866;-72
2023/07/19 06:44:41;;;;;;;1999.90;999.90;;;23.90;99.90;;;;;;5047443;28;20429;-73
2023/07/19 06:47:08;;;;;;;1999.90;999.90;;;24.00;99.90;;;;;;5048385;28;20433;-72
2023/07/19 06:49:37;;;;;;;1999.90;999.90;;;23.90;99.90;;;;;;5047901;28;20436;-74
2023/07/19 06:52:04;;;;;;;1999.90;999.90;;;24.60;99.90;;;;;;5049040;28;20513;-73
2023/07/19 06:54:31;;;;;;;1999.90;999.90;;;24.90;99.10;;;;;;5043771;28;20521;-73
2023/07/19 06:56:57;;;;;;;1999.90;999.90;;;25.00;99.20;;;;;;5044516;28;20440;-73
2023/07/19 06:59:24;;;;;;;1999.90;999.90;;;25.10;96.80;;;;;;5046554;28;20441;-73
2023/07/19 07:01:51;;;;;;;1999.90;999.90;;;24.90;95.30;;;;;;5050204;28;20445;-73
2023/07/19 07:04:18;;;;;;;1999.90;999.90;;;24.80;95.70;;;;;;5033265;28;20422;-73
2023/07/19 07:06:46;;;;;;;1999.90;999.90;;;24.90;93.70;;;;;;5058841;28;20416;-72
2023/07/19 07:09:14;;;;;;;1999.90;999.90;;;24.70;93.80;;;;;;5067403;28;20423;-73
2023/07/19 07:11:41;;;;;;;1999.90;999.90;;;24.90;94.80;;;;;;5070475;28;20424;-73
2023/07/19 07:14:08;;;;;;;1999.90;999.90;;;25.20;94.30;;;;;;5070314;28;20439;-74
2023/07/19 07:16:35;;;;;;;1999.90;999.90;;;25.50;93.40;;;;;;5058044;28;20421;-73
2023/07/19 07:19:02;;;;;;;1999.90;999.90;;;25.60;92.30;;;;;;5065852;28;20411;-74
2023/07/19 07:21:29;;;;;;;1999.90;999.90;;;25.90;92.60;;;;;;5070514;28;20415;-73
2023/07/19 07:23:57;;;;;;;1999.90;999.90;;;26.00;91.00;;;;;;5070344;28;20897;-73
2023/07/19 07:26:23;;;;;;;1999.90;999.90;;;26.10;90.50;;;;;;5060492;28;20427;-71
2023/07/19 07:28:50;;;;;;;1999.90;999.90;;;26.40;90.90;;;;;;5063827;28;20422;-73
2023/07/19 07:31:17;;;;;;;1999.90;999.90;;;26.50;90.40;;;;;;5070577;28;20408;-73
2023/07/19 07:33:44;;;;;;;1999.90;999.90;;;26.70;90.30;;;;;;5070336;28;20415;-73
2023/07/19 07:36:10;;;;;;;1999.90;999.90;;;26.60;89.90;;;;;;5062495;28;20438;-73
2023/07/19 07:38:37;;;;;;;1999.90;999.90;;;26.10;90.30;;;;;;5061842;28;20915;-73
2023/07/19 07:41:05;;;;;;;1999.90;999.90;;;25.60;90.90;;;;;;5070032;28;20415;-73
2023/07/19 07:43:33;;;;;;;1999.90;999.90;;;25.20;90.60;;;;;;5070412;28;20450;-72
2023/07/19 07:46:00;;;;;;;1999.90;999.90;;;25.10;90.20;;;;;;5062745;28;20431;-73
2023/07/19 07:48:26;;;;;;;1999.90;999.90;;;25.10;90.40;;;;;;5061393;28;20426;-73
2023/07/19 07:50:54;;;;;;;1999.90;999.90;;;25.10;90.40;;;;;;5057887;28;20433;-71
2023/07/19 07:53:20;;;;;;;1999.90;999.90;;;25.30;89.40;;;;;;5067914;28;20419;-72
2023/07/19 07:55:47;;;;;;;1999.90;999.90;;;25.30;88.30;;;;;;5069888;28;20484;-73
2023/07/19 07:58:16;;;;;;;1999.90;999.90;;;25.00;89.30;;;;;;5070000;28;20407;-73
2023/07/19 08:00:43;;;;;;;1999.90;999.90;;;25.10;90.30;;;;;;5060274;28;20437;-73
2023/07/19 08:03:10;;;;;;;1999.90;999.90;;;25.40;90.30;;;;;;5066199;28;20428;-72
2023/07/19 08:05:38;;;;;;;1999.90;999.90;;;25.90;89.20;;;;;;5070045;28;20915;-72
2023/07/19 08:08:06;;;;;;;1999.90;999.90;;;26.00;88.20;;;;;;5069537;28;20805;-72
2023/07/19 08:10:33;;;;;;;1999.90;999.90;;;26.10;87.30;;;;;;5058307;28;20439;-72
2023/07/19 08:12:59;;;;;;;1999.90;999.90;;;26.00;86.50;;;;;;5058975;28;20413;-73
2023/07/19 08:15:28;;;;;;;1999.90;999.90;;;25.80;89.00;;;;;;5053683;28;20519;-73
2023/07/19 08:17:54;;;;;;;1999.90;999.90;;;26.10;88.60;;;;;;5053367;28;20887;-73
2023/07/19 08:20:21;;;;;;;1999.90;999.90;;;26.30;88.20;;;;;;5060999;28;20435;-73
2023/07/19 08:22:48;;;;;;;1999.90;999.90;;;26.90;87.30;;;;;;5066554;28;20415;-73
2023/07/19 08:25:16;;;;;;;1999.90;999.90;;;27.10;84.50;;;;;;5073840;28;20428;-73
2023/07/19 08:27:44;;;;;;;1999.90;999.90;;;26.80;83.60;;;;;;5073355;28;20498;-73
2023/07/19 08:30:15;;;;;;;1999.90;999.90;;;26.40;84.70;;;;;;5068775;28;20459;-73
2023/07/19 08:32:44;;;;;;;1999.90;999.90;;;26.40;86.50;;;;;;5057746;28;20811;-71
2023/07/19 08:35:11;;;;;;;1999.90;999.90;;;26.50;84.90;;;;;;5073226;28;20415;-73
2023/07/19 08:37:37;;;;;;;1999.90;999.90;;;26.60;84.10;;;;;;5073174;28;20411;-73
2023/07/19 08:40:05;;;;;;;1999.90;999.90;;;26.40;84.50;;;;;;5068544;28;20917;-73
2023/07/19 08:42:32;;;;;;;1999.90;999.90;;;26.40;84.50;;;;;;5064712;28;20420;-72
2023/07/19 08:44:59;;;;;;;1999.90;999.90;;;26.50;87.10;;;;;;5073297;28;20434;-73
2023/07/19 08:47:26;;;;;;;1999.90;999.90;;;26.30;85.90;;;;;;5073025;28;20415;-72
2023/07/19 08:49:54;;;;;;;1999.90;999.90;;;26.60;85.40;;;;;;5063013;28;20429;-74
2023/07/19 08:52:22;;;;;;;1999.90;999.90;;;26.70;84.90;;;;;;5062017;28;20420;-74
2023/07/19 08:54:49;;;;;;;1999.90;999.90;;;26.90;84.10;;;;;;5073145;28;20893;-70
2023/07/19 08:57:16;;;;;;;1999.90;999.90;;;26.90;83.30;;;;;;5072693;28;20435;-74
2023/07/19 08:59:43;;;;;;;1999.90;999.90;;;26.90;83.30;;;;;;5068341;28;20443;-73
2023/07/19 09:02:09;;;;;;;1999.90;999.90;;;26.80;82.00;;;;;;5064392;28;20415;-70
2023/07/19 09:04:38;;;;;;;1999.90;999.90;;;26.70;82.70;;;;;;5072738;28;20412;-73
2023/07/19 09:07:06;;;;;;;1999.90;999.90;;;26.90;83.10;;;;;;5062033;28;20430;-71
2023/07/19 09:09:33;;;;;;;1999.90;999.90;;;26.80;83.30;;;;;;5047628;28;20435;-71
2023/07/19 09:12:00;;;;;;;1999.90;999.90;;;27.00;81.10;;;;;;5050598;28;21019;-74
2023/07/19 09:14:37;;;;;;;1999.90;999.90;;;26.40;83.60;;;;;;5050926;28;20520;-73
2023/07/19 09:17:04;;;;;;;1999.90;999.90;;;25.90;84.00;;;;;;5049074;28;20436;-70
2023/07/19 09:19:31;;;;;;;1999.90;999.90;;;25.50;84.30;;;;;;5049603;28;20433;-70
2023/07/19 09:22:06;;;;;;;1999.90;999.90;;;25.40;85.40;;;;;;5050934;28;20429;-70
2023/07/19 09:24:32;;;;;;;1999.90;999.90;;;25.60;85.90;;;;;;5046629;28;20433;-70
2023/07/19 09:27:00;;;;;;;1999.90;999.90;;;25.70;86.50;;;;;;5044945;28;20437;-70
2023/07/19 09:29:30;;;;;;;1999.90;999.90;;;25.90;87.00;;;;;;5044290;28;20444;-69
2023/07/19 09:31:59;;;;;;;1999.90;999.90;;;25.50;87.30;;;;;;5036325;28;20435;-73
2023/07/19 09:34:27;;;;;;;1999.90;999.90;;;25.50;87.70;;;;;;5039684;28;20443;-71
2023/07/19 09:36:55;;;;;;;1999.90;999.90;;;25.50;88.30;;;;;;5049175;28;20429;-72
2023/07/19 09:39:23;;;;;;;1999.90;999.90;;;25.50;87.90;;;;;;5044306;28;20433;-72
2023/07/19 09:41:50;;;;;;;1999.90;999.90;;;25.20;89.30;;;;;;5048540;28;20433;-71
2023/07/19 09:44:18;;;;;;;1999.90;999.90;;;25.00;88.50;;;;;;5049428;28;20873;-70
2023/07/19 09:46:46;;;;;;;1999.90;999.90;;;24.80;88.60;;;;;;5044569;28;20432;-70
2023/07/19 09:49:13;;;;;;;1999.90;999.90;;;24.70;90.00;;;;;;5050008;28;20527;-71
2023/07/19 09:51:41;;;;;;;1999.90;999.90;;;24.80;90.30;;;;;;5046087;28;20562;-70
2023/07/19 09:54:10;;;;;;;1999.90;999.90;;;24.90;89.80;;;;;;5045074;28;20853;-71
2023/07/19 09:56:39;;;;;;;1999.90;999.90;;;25.50;89.90;;;;;;5043322;28;20458;-72
2023/07/19 09:59:09;;;;;;;1999.90;999.90;;;26.00;89.10;;;;;;5051504;28;20417;-73
2023/07/19 10:01:36;;;;;;;1999.90;999.90;;;26.80;88.80;;;;;;5058021;28;20467;-73
2023/07/19 10:04:22;;;;;;;1999.90;999.90;;;26.50;88.20;;;;;;5066096;28;20512;-73
2023/07/19 10:06:49;;;;;;;1999.90;999.90;;;26.40;85.90;;;;;;5071686;28;20461;-73
2023/07/19 10:09:31;;;;;;;1999.90;999.90;;;26.40;85.40;;;;;;5071258;28;20443;-74
2023/07/19 10:12:01;;;;;;;1999.90;999.90;;;26.90;84.70;;;;;;5053707;28;20470;-73
2023/07/19 10:14:29;;;;;;;1999.90;999.90;;;27.30;83.30;;;;;;5069531;28;20420;-74
2023/07/19 10:17:00;;;;;;;1999.90;999.90;;;27.10;83.00;;;;;;5071406;28;20518;-73
2023/07/19 10:19:27;;;;;;;1999.90;999.90;;;26.60;83.80;;;;;;5070217;28;20784;-71
2023/07/19 10:22:05;;;;;;;1999.90;999.90;;;26.50;85.00;;;;;;5059590;28;20424;-73
2023/07/19 10:24:31;;;;;;;1999.90;999.90;;;26.90;83.50;;;;;;5069701;28;20419;-72
2023/07/19 10:27:03;;;;;;;1999.90;999.90;;;26.90;83.50;;;;;;5071290;28;20414;-71
2023/07/19 10:29:39;;;;;;;1999.90;999.90;;;26.80;84.50;;;;;;5065641;28;20445;-73
2023/07/19 10:32:07;;;;;;;1999.90;999.90;;;27.10;85.70;;;;;;5048158;28;20425;-71
2023/07/19 10:34:33;;;;;;;1999.90;999.90;;;27.20;83.10;;;;;;5044668;28;20425;-72
2023/07/19 10:37:04;;;;;;;1999.90;999.90;;;27.60;83.90;;;;;;5044590;28;20437;-73
2023/07/19 10:39:31;;;;;;;1999.90;999.90;;;27.40;82.20;;;;;;5044043;28;20425;-72
2023/07/19 10:41:59;;;;;;;1999.90;999.90;;;27.30;81.70;;;;;;5035826;28;20434;-73
2023/07/19 10:44:27;;;;;;;1999.90;999.90;;;26.70;81.30;;;;;;5034264;28;20433;-73
2023/07/19 10:46:55;;;;;;;1999.90;999.90;;;26.20;82.30;;;;;;5046812;28;20425;-72
2023/07/19 10:49:22;;;;;;;1999.90;999.90;;;25.90;84.50;;;;;;5047146;28;20460;-73
2023/07/19 10:51:53;;;;;;;1999.90;999.90;;;25.80;84.70;;;;;;5047563;28;20429;-70
2023/07/19 10:54:20;;;;;;;1999.90;999.90;;;25.60;86.10;;;;;;5047522;28;20905;-70
2023/07/19 10:56:48;;;;;;;1999.90;999.90;;;25.60;86.50;;;;;;5048778;28;20425;-73
2023/07/19 10:59:15;;;;;;;1999.90;999.90;;;25.70;86.80;;;;;;5048916;28;20906;-73
2023/07/19 11:01:43;;;;;;;1999.90;999.90;;;25.60;86.80;;;;;;5047695;28;20433;-73
2023/07/19 11:04:09;;;;;;;1999.90;999.90;;;25.50;87.90;;;;;;5047674;28;20448;-72
2023/07/19 11:06:38;;;;;;;1999.90;999.90;;;25.70;88.00;;;;;;5045679;28;20438;-73
2023/07/19 11:09:06;;;;;;;1999.90;999.90;;;25.70;88.20;;;;;;5046490;28;20440;-73
2023/07/19 11:11:37;;;;;;;1999.90;999.90;;;25.90;88.10;;;;;;5048579;28;20433;-70
2023/07/19 11:14:04;;;;;;;1999.90;999.90;;;26.20;88.30;;;;;;5048797;28;20451;-72
2023/07/19 11:16:32;;;;;;;1999.90;999.90;;;26.50;87.10;;;;;;5044312;28;20429;-73
2023/07/19 11:19:00;;;;;;;1999.90;999.90;;;26.80;88.00;;;;;;5046384;28;20471;-70
2023/07/19 11:21:28;;;;;;;1999.90;999.90;;;27.30;86.50;;;;;;5046695;28;20436;-73
2023/07/19 11:23:55;;;;;;;1999.90;999.90;;;27.70;84.40;;;;;;5047299;28;20440;-70
2023/07/19 11:26:22;;;;;;;1999.90;999.90;;;27.90;84.40;;;;;;5041859;28;21184;-74
2023/07/19 11:28:53;;;;;;;1999.90;999.90;;;28.00;83.60;;;;;;5045818;28;20437;-73
2023/07/19 11:31:31;;;;;;;1999.90;999.90;;;27.80;82.30;;;;;;5046712;28;20429;-71
2023/07/19 11:34:01;;;;;;;1999.90;999.90;;;27.80;82.30;;;;;;5045568;28;20444;-73
2023/07/19 11:36:28;;;;;;;1999.90;999.90;;;27.50;83.10;;;;;;5041065;28;20453;-72
2023/07/19 11:38:55;;;;;;;1999.90;999.90;;;27.50;84.50;;;;;;5046933;28;20417;-73
2023/07/19 11:41:22;;;;;;;1999.90;999.90;;;27.60;83.60;;;;;;5045708;28;20433;-73
2023/07/19 11:43:51;;;;;;;1999.90;999.90;;;27.30;82.80;;;;;;5046684;28;20490;-73
2023/07/19 11:46:17;;;;;;;1999.90;999.90;;;27.00;83.10;;;;;;5048135;28;20576;-73
2023/07/19 11:48:46;;;;;;;1999.90;999.90;;;27.30;83.50;;;;;;5050960;28;20453;-73
2023/07/19 11:51:15;;;;;;;1999.90;999.90;;;27.60;83.50;;;;;;5049092;28;20432;-72
2023/07/19 11:53:42;;;;;;;1999.90;999.90;;;27.70;82.80;;;;;;5051832;28;20433;-73
2023/07/19 11:56:09;;;;;;;1999.90;999.90;;;27.50;84.00;;;;;;5046372;28;20413;-71
2023/07/19 11:58:36;;;;;;;1999.90;999.90;;;27.40;84.70;;;;;;5053848;28;20495;-73
2023/07/19 12:01:03;;;;;;;1999.90;999.90;;;27.10;84.40;;;;;;5053322;28;20421;-73